Time;durP1;ratioP1;P1;durP2;ratioP2;P2;SDS_P1;SDS_P2;PMS_P1;PMS_P2;Temp;Humidity;BMP_temperature;BMP_pressure;BME280_temperature;BME280_humidity;BME280_pressure;Samples;Min_cycle;Max_cycle;Signal;HPM_P1;HPM_P2
2022/02/20 00:00:25;;;;;;;4.75;2.15;;;24.90;63.30;;;;;;4136984;28;20896;-68
2022/02/20 00:02:48;;;;;;;5.43;1.90;;;25.00;63.30;;;;;;4139468;28;20119;-66
2022/02/20 00:05:10;;;;;;;3.90;1.50;;;25.00;63.20;;;;;;4150500;28;20048;-65
2022/02/20 00:07:33;;;;;;;3.55;1.77;;;25.00;63.30;;;;;;4140581;28;20032;-66
2022/02/20 00:09:55;;;;;;;5.43;2.08;;;25.00;63.30;;;;;;4142627;28;20071;-65
2022/02/20 00:12:18;;;;;;;6.03;1.60;;;25.00;63.20;;;;;;4150508;28;20033;-66
2022/02/20 00:14:40;;;;;;;6.30;1.90;;;25.00;63.20;;;;;;4145767;28;20101;-66
2022/02/20 00:17:03;;;;;;;3.22;1.30;;;25.00;63.10;;;;;;4142932;28;20044;-66
2022/02/20 00:19:25;;;;;;;2.63;1.30;;;25.00;63.10;;;;;;4150599;28;22084;-66
2022/02/20 00:21:48;;;;;;;4.18;1.65;;;25.10;63.10;;;;;;4144498;28;20415;-66
2022/02/20 00:24:11;;;;;;;5.72;1.63;;;25.10;63.20;;;;;;4137280;28;20068;-66
2022/02/20 00:26:33;;;;;;;3.00;1.63;;;25.10;63.10;;;;;;4143471;28;20086;-66
2022/02/20 00:28:56;;;;;;;2.70;1.73;;;25.10;63.10;;;;;;4143575;28;20040;-66
2022/02/20 00:31:18;;;;;;;3.95;1.30;;;25.10;63.10;;;;;;4136995;28;20067;-65
2022/02/20 00:33:41;;;;;;;3.90;1.45;;;25.10;63.00;;;;;;4140547;28;20037;-68
2022/02/20 14:13:17;;;;;;;2.55;1.42;;;27.90;63.80;;;;;;5095781;22;3094474;-60
2022/02/20 14:15:40;;;;;;;4.68;1.45;;;27.90;63.80;;;;;;5232825;22;20056;-61
2022/02/20 14:18:09;;;;;;;3.42;1.55;;;27.90;63.70;;;;;;5231190;22;20454;-61
2022/02/20 14:20:46;;;;;;;3.20;1.60;;;27.90;63.70;;;;;;5233533;22;20011;-61
2022/02/20 14:23:14;;;;;;;4.65;1.45;;;27.90;63.70;;;;;;5233319;22;20075;-61
2022/02/20 14:25:36;;;;;;;2.15;1.33;;;27.90;63.70;;;;;;5204187;22;20021;-65
2022/02/20 14:27:59;;;;;;;2.75;1.27;;;27.90;63.80;;;;;;5234756;22;20143;-65
2022/02/20 14:30:39;;;;;;;2.15;1.35;;;27.90;63.80;;;;;;5233333;22;20101;-66
2022/02/20 14:33:07;;;;;;;1.83;1.30;;;27.90;63.80;;;;;;5235546;22;20046;-65
2022/02/20 14:35:29;;;;;;;1.88;1.38;;;27.90;63.80;;;;;;5225424;22;20059;-66
2022/02/20 14:38:04;;;;;;;2.20;1.40;;;27.90;63.80;;;;;;5234967;22;20015;-66
2022/02/20 14:40:27;;;;;;;2.78;1.27;;;27.90;64.50;;;;;;5233468;22;20523;-67
2022/02/20 14:42:49;;;;;;;3.40;1.37;;;27.90;63.80;;;;;;5236423;22;20470;-64
2022/02/20 14:45:11;;;;;;;2.88;1.38;;;27.90;63.80;;;;;;5233620;22;20014;-64
2022/02/20 14:47:34;;;;;;;3.15;1.40;;;27.90;63.90;;;;;;5234138;22;20042;-64
2022/02/20 14:49:56;;;;;;;1.92;1.35;;;27.90;63.80;;;;;;5235276;22;20494;-64
2022/02/20 14:52:18;;;;;;;4.03;1.70;;;27.90;63.80;;;;;;5234269;22;20010;-65
2022/02/20 14:54:41;;;;;;;3.97;1.65;;;27.90;63.90;;;;;;5236132;22;20088;-60
2022/02/20 14:57:04;;;;;;;3.15;1.70;;;27.90;64.00;;;;;;5234570;22;20156;-61
2022/02/20 14:59:34;;;;;;;2.65;1.77;;;27.90;63.90;;;;;;5202564;22;20015;-60
2022/02/20 15:01:56;;;;;;;4.60;1.52;;;27.90;63.90;;;;;;5235950;22;20137;-59
2022/02/20 15:04:19;;;;;;;2.75;1.60;;;27.90;63.90;;;;;;5234942;22;20015;-60
2022/02/20 15:06:41;;;;;;;3.63;1.65;;;27.90;63.90;;;;;;5233451;22;20484;-63
2022/02/20 15:09:04;;;;;;;2.90;1.63;;;27.90;63.90;;;;;;5237390;22;20007;-59
2022/02/20 15:11:32;;;;;;;1.95;1.25;;;27.90;64.00;;;;;;5237410;22;20118;-58
2022/02/20 15:13:54;;;;;;;2.55;1.52;;;27.90;63.90;;;;;;5237437;22;20023;-59
2022/02/20 15:16:16;;;;;;;3.13;1.55;;;27.90;64.00;;;;;;5236991;22;20014;-64
2022/02/20 15:18:40;;;;;;;2.60;1.33;;;27.90;64.00;;;;;;5236358;22;20749;-61
2022/02/20 15:21:02;;;;;;;2.03;1.38;;;27.90;64.00;;;;;;5241720;22;20010;-62
2022/02/20 15:23:25;;;;;;;5.82;1.50;;;27.90;64.00;;;;;;5241518;22;20399;-59
2022/02/20 15:25:48;;;;;;;3.25;1.55;;;27.90;64.00;;;;;;5230873;22;20018;-59
2022/02/20 15:28:10;;;;;;;2.92;1.85;;;27.90;64.00;;;;;;5232889;22;20015;-60
2022/02/20 15:30:33;;;;;;;2.08;1.30;;;27.90;64.00;;;;;;5230081;22;20442;-59
2022/02/20 15:32:55;;;;;;;1.95;1.30;;;27.90;64.10;;;;;;5233097;22;20129;-62
2022/02/20 15:35:18;;;;;;;2.28;1.45;;;27.90;64.00;;;;;;5233906;22;20101;-61
2022/02/20 15:37:40;;;;;;;1.95;1.30;;;27.90;64.00;;;;;;5234336;22;20030;-60
2022/02/20 15:40:06;;;;;;;1.92;1.10;;;28.00;64.10;;;;;;5233786;22;20010;-60
2022/02/20 15:42:29;;;;;;;2.42;1.42;;;27.90;64.00;;;;;;5234282;22;20019;-61
2022/02/20 15:44:53;;;;;;;2.95;1.40;;;27.90;64.00;;;;;;5232126;22;20711;-58
2022/02/20 15:47:16;;;;;;;3.22;1.60;;;27.90;64.20;;;;;;5232073;22;20089;-65
2022/02/20 15:49:38;;;;;;;2.70;1.40;;;28.00;64.20;;;;;;5233186;22;20183;-63
2022/02/20 15:52:01;;;;;;;3.15;1.45;;;27.90;64.10;;;;;;5232805;22;20435;-60
2022/02/20 15:54:24;;;;;;;2.75;1.50;;;28.00;64.20;;;;;;5233988;22;20011;-58
2022/02/20 15:56:50;;;;;;;3.17;1.80;;;27.90;64.20;;;;;;5234146;22;20045;-63
2022/02/20 15:59:13;;;;;;;2.53;1.50;;;28.00;64.20;;;;;;5234499;22;20010;-59
2022/02/20 16:01:35;;;;;;;2.17;1.60;;;28.00;64.30;;;;;;5234036;22;20759;-60
2022/02/20 16:03:58;;;;;;;3.00;1.83;;;28.00;64.30;;;;;;5232593;22;20034;-59
2022/02/20 16:06:20;;;;;;;3.25;1.45;;;28.00;64.30;;;;;;5231763;22;20023;-60
2022/02/20 16:08:43;;;;;;;3.97;1.60;;;28.00;64.30;;;;;;5234047;22;20014;-60
2022/02/20 16:11:08;;;;;;;2.67;1.37;;;28.00;64.30;;;;;;5223202;22;20823;-61
2022/02/20 16:13:32;;;;;;;3.75;1.40;;;28.00;64.30;;;;;;5234602;22;20256;-61
2022/02/20 16:15:54;;;;;;;3.72;1.45;;;28.00;64.30;;;;;;5202231;22;20070;-60
2022/02/20 16:18:16;;;;;;;3.55;1.70;;;27.90;64.30;;;;;;5234074;22;20015;-61
2022/02/20 16:20:39;;;;;;;1.85;1.30;;;28.00;64.30;;;;;;5233664;22;20072;-58
2022/02/20 16:23:01;;;;;;;3.47;1.60;;;28.00;64.40;;;;;;5233615;22;20014;-59
2022/02/20 16:25:24;;;;;;;3.83;1.52;;;28.00;64.30;;;;;;5233693;22;20296;-58
2022/02/20 16:27:46;;;;;;;2.45;1.63;;;28.00;64.30;;;;;;5233061;22;20014;-59
2022/02/20 16:30:31;;;;;;;2.03;1.40;;;28.00;64.30;;;;;;5234274;22;20173;-58
2022/02/20 16:32:54;;;;;;;2.78;1.50;;;27.90;64.20;;;;;;5234155;22;20353;-58
2022/02/20 16:35:16;;;;;;;3.65;1.65;;;27.90;64.20;;;;;;5234671;22;20093;-59
2022/02/20 16:37:38;;;;;;;2.38;1.30;;;27.90;64.20;;;;;;5233535;22;20373;-58
2022/02/20 16:40:01;;;;;;;2.38;1.58;;;27.90;64.20;;;;;;5232514;22;20021;-59
2022/02/20 16:42:24;;;;;;;2.35;1.42;;;27.90;64.20;;;;;;5236373;22;20015;-59
2022/02/20 16:44:47;;;;;;;2.20;1.50;;;27.90;64.20;;;;;;5234767;22;20021;-59
2022/02/20 16:47:10;;;;;;;3.05;1.65;;;27.90;64.20;;;;;;5235939;22;20509;-60
2022/02/20 16:49:33;;;;;;;3.05;1.48;;;27.90;64.30;;;;;;5225978;22;20125;-58
2022/02/20 16:51:56;;;;;;;3.38;1.75;;;27.90;64.30;;;;;;5225182;22;20026;-61
2022/02/20 16:54:18;;;;;;;2.13;1.40;;;27.90;64.40;;;;;;5236198;22;20015;-60
2022/02/20 16:56:41;;;;;;;2.20;1.40;;;27.90;64.40;;;;;;5235183;22;20328;-60
2022/02/20 16:59:03;;;;;;;2.45;1.60;;;27.90;64.40;;;;;;5236889;22;20029;-62
2022/02/20 17:01:27;;;;;;;3.00;1.42;;;27.90;64.50;;;;;;5236932;22;20110;-60
2022/02/20 17:03:51;;;;;;;1.92;1.50;;;27.90;64.50;;;;;;5228468;22;20434;-62
2022/02/20 17:06:15;;;;;;;2.00;1.40;;;27.90;64.50;;;;;;5237144;22;20014;-64
2022/02/20 17:08:37;;;;;;;2.03;1.40;;;27.90;64.50;;;;;;5238424;22;20098;-62
2022/02/20 17:10:59;;;;;;;2.63;1.60;;;27.90;64.50;;;;;;5233908;22;20023;-62
2022/02/20 17:13:22;;;;;;;3.25;1.70;;;27.90;64.50;;;;;;5233666;22;20106;-63
2022/02/20 17:15:45;;;;;;;3.05;1.70;;;27.90;64.60;;;;;;5225714;22;20022;-62
2022/02/20 17:18:07;;;;;;;2.95;1.40;;;27.90;64.60;;;;;;5224683;22;20433;-62
2022/02/20 17:20:29;;;;;;;3.63;1.80;;;27.90;64.70;;;;;;5231306;22;20384;-62
2022/02/20 17:22:52;;;;;;;3.60;1.80;;;27.90;64.80;;;;;;5232443;22;20101;-63
2022/02/20 17:25:14;;;;;;;2.80;1.60;;;27.90;64.80;;;;;;5231235;22;20094;-62
2022/02/20 17:27:37;;;;;;;2.17;1.60;;;27.90;64.80;;;;;;5232110;22;20064;-63
2022/02/20 17:30:01;;;;;;;4.17;1.43;;;27.90;64.80;;;;;;5232878;22;20098;-59
2022/02/20 17:32:27;;;;;;;3.08;1.33;;;27.90;65.50;;;;;;5221626;22;20076;-59
2022/02/20 17:34:49;;;;;;;2.97;1.55;;;27.90;64.80;;;;;;5233937;22;20022;-61
2022/02/20 17:37:12;;;;;;;2.72;1.90;;;27.90;64.90;;;;;;5232039;22;20849;-59
2022/02/20 17:39:34;;;;;;;2.45;1.52;;;27.90;64.90;;;;;;5231495;22;20435;-61
2022/02/20 17:41:57;;;;;;;3.55;1.75;;;27.90;65.00;;;;;;5231215;22;20015;-60
2022/02/20 17:44:19;;;;;;;4.75;1.90;;;27.90;64.90;;;;;;5231158;22;20011;-61
2022/02/20 17:46:42;;;;;;;1.77;1.50;;;27.90;65.00;;;;;;5232116;22;20423;-61
2022/02/20 17:49:04;;;;;;;3.25;1.25;;;27.90;65.00;;;;;;5232877;22;20496;-59
2022/02/20 17:51:27;;;;;;;2.28;1.35;;;27.90;65.00;;;;;;5232086;22;20376;-60
2022/02/20 17:53:50;;;;;;;3.53;1.37;;;27.90;65.00;;;;;;5233198;22;20086;-59
2022/02/20 17:56:12;;;;;;;2.00;1.20;;;27.80;65.00;;;;;;5232734;22;20122;-60
2022/02/20 17:58:34;;;;;;;2.25;1.35;;;27.90;65.10;;;;;;5232564;22;20011;-59
2022/02/20 18:00:57;;;;;;;2.10;1.27;;;27.80;65.00;;;;;;5231931;22;20019;-60
2022/02/20 18:03:21;;;;;;;2.78;1.38;;;27.90;65.10;;;;;;5232321;22;20010;-58
2022/02/20 18:05:44;;;;;;;3.72;1.48;;;27.90;65.10;;;;;;5231601;22;20137;-61
2022/02/20 18:08:06;;;;;;;2.60;1.48;;;27.90;65.10;;;;;;5232865;22;20059;-63
2022/02/20 18:10:29;;;;;;;2.40;1.13;;;27.80;65.00;;;;;;5232993;22;20025;-62
2022/02/20 18:12:53;;;;;;;2.27;1.43;;;27.80;65.00;;;;;;5235026;22;20510;-63
2022/02/20 18:15:16;;;;;;;2.08;1.42;;;27.80;65.00;;;;;;5225260;22;20247;-63
2022/02/20 18:17:38;;;;;;;4.72;1.30;;;27.80;65.00;;;;;;5224243;22;20346;-62
2022/02/20 18:20:01;;;;;;;2.33;1.30;;;27.80;65.00;;;;;;5233930;22;20083;-62
2022/02/20 18:22:23;;;;;;;3.15;1.50;;;27.80;65.00;;;;;;5234143;22;20014;-61
2022/02/20 18:24:47;;;;;;;3.55;1.55;;;27.80;65.00;;;;;;5234683;22;20011;-59
2022/02/20 18:27:10;;;;;;;1.88;1.13;;;27.80;65.00;;;;;;5235088;22;20425;-59
2022/02/20 18:29:33;;;;;;;1.42;1.13;;;27.80;65.00;;;;;;5233853;22;20094;-59
2022/02/20 18:31:57;;;;;;;1.88;1.10;;;27.80;64.60;;;;;;5234777;22;20036;-59
2022/02/20 18:34:20;;;;;;;2.80;0.90;;;27.80;65.00;;;;;;5236459;22;20046;-59
2022/02/20 18:36:47;;;;;;;1.48;1.13;;;27.70;64.50;;;;;;5234284;22;20473;-59
2022/02/20 18:39:09;;;;;;;1.65;0.90;;;27.70;64.90;;;;;;5236256;22;20017;-60
2022/02/20 18:41:32;;;;;;;1.98;1.00;;;27.70;64.80;;;;;;5232951;22;20333;-59
2022/02/20 18:43:54;;;;;;;2.10;1.13;;;27.70;64.80;;;;;;5234141;22;20010;-59
2022/02/20 18:46:17;;;;;;;2.40;1.10;;;27.70;64.70;;;;;;5232352;22;20018;-59
2022/02/20 18:48:39;;;;;;;2.65;1.52;;;27.70;64.80;;;;;;5234856;22;20014;-60
2022/02/20 18:51:02;;;;;;;2.17;1.10;;;27.70;64.70;;;;;;5233214;22;20728;-59
2022/02/20 18:53:25;;;;;;;1.67;1.20;;;27.60;64.50;;;;;;5227319;22;20019;-59
2022/02/20 18:55:47;;;;;;;3.65;1.20;;;27.60;64.40;;;;;;5232681;22;20018;-59
2022/02/20 18:58:10;;;;;;;2.03;0.98;;;27.60;64.40;;;;;;5234036;22;20061;-59
2022/02/20 19:00:34;;;;;;;2.03;1.20;;;27.60;64.30;;;;;;5224795;22;20568;-59
2022/02/20 19:02:57;;;;;;;0.98;0.65;;;27.60;64.20;;;;;;5235843;22;20025;-59
2022/02/20 19:05:19;;;;;;;1.63;1.00;;;27.50;64.10;;;;;;5233868;22;20018;-60
2022/02/20 19:07:42;;;;;;;2.08;1.00;;;27.50;64.00;;;;;;5233920;22;20539;-58
2022/02/20 19:10:05;;;;;;;2.35;0.90;;;27.50;64.00;;;;;;5233792;22;20015;-57
2022/02/20 19:12:28;;;;;;;6.05;1.38;;;27.50;63.90;;;;;;5237530;22;20041;-61
2022/02/20 19:14:51;;;;;;;3.67;1.02;;;27.50;64.00;;;;;;5238641;22;20090;-60
2022/02/20 19:17:13;;;;;;;1.70;0.88;;;27.50;63.90;;;;;;5234940;22;20113;-60
2022/02/20 19:19:36;;;;;;;1.70;0.80;;;27.50;63.70;;;;;;5237500;22;20003;-60
2022/02/20 19:21:59;;;;;;;2.08;0.70;;;27.50;63.70;;;;;;5237954;22;20696;-59
2022/02/20 19:24:21;;;;;;;0.95;0.70;;;27.50;63.70;;;;;;5242727;22;20022;-60
2022/02/20 19:26:43;;;;;;;1.23;0.70;;;27.50;63.60;;;;;;5240161;22;20055;-60
2022/02/20 19:29:07;;;;;;;1.15;0.60;;;27.50;63.50;;;;;;5243456;22;20010;-60
2022/02/20 19:31:29;;;;;;;1.90;1.00;;;27.40;63.40;;;;;;5241327;22;20066;-60
2022/02/20 19:33:51;;;;;;;0.47;0.47;;;27.40;63.30;;;;;;5231463;22;20852;-61
2022/02/20 19:36:14;;;;;;;1.73;0.70;;;27.40;63.30;;;;;;5234156;22;20110;-60
2022/02/20 19:38:37;;;;;;;1.25;0.73;;;27.40;63.30;;;;;;5232332;22;20010;-64
2022/02/20 19:40:59;;;;;;;2.15;0.60;;;27.40;63.20;;;;;;5230504;22;20035;-64
2022/02/20 19:43:22;;;;;;;0.52;0.52;;;27.40;63.20;;;;;;5231032;22;20472;-63
2022/02/20 19:45:44;;;;;;;0.60;0.60;;;27.40;63.00;;;;;;5230427;22;20778;-60
2022/02/20 19:48:07;;;;;;;1.27;0.60;;;27.40;63.00;;;;;;5230781;22;20075;-60
2022/02/20 19:50:30;;;;;;;0.97;0.50;;;27.40;63.00;;;;;;5230179;22;20015;-64
2022/02/20 19:52:53;;;;;;;1.40;0.52;;;27.40;63.00;;;;;;5230095;22;20450;-59
2022/02/20 19:55:16;;;;;;;0.68;0.60;;;27.40;63.00;;;;;;5230213;22;20015;-61
2022/02/20 19:57:42;;;;;;;1.85;0.60;;;27.40;63.00;;;;;;5227324;22;20022;-60
2022/02/20 20:00:05;;;;;;;0.47;0.47;;;27.40;62.90;;;;;;5218148;22;20087;-61
2022/02/20 20:02:27;;;;;;;1.77;0.60;;;27.30;62.80;;;;;;5226597;22;20079;-62
2022/02/20 20:04:50;;;;;;;0.50;0.50;;;27.30;62.70;;;;;;5228436;22;20869;-63
2022/02/20 20:07:12;;;;;;;2.33;0.98;;;27.30;62.70;;;;;;5226555;22;20029;-62
2022/02/20 20:09:36;;;;;;;0.63;0.50;;;27.30;62.70;;;;;;5229379;22;20417;-62
2022/02/20 20:12:00;;;;;;;0.68;0.35;;;27.30;62.90;;;;;;5230505;22;20097;-63
2022/02/20 20:14:23;;;;;;;0.70;0.55;;;27.30;62.70;;;;;;5230246;22;20029;-59
2022/02/20 20:16:45;;;;;;;1.45;0.77;;;27.30;62.60;;;;;;5229718;22;20591;-61
2022/02/20 20:19:08;;;;;;;1.77;0.52;;;27.30;62.60;;;;;;5228515;22;20069;-60
2022/02/20 20:21:31;;;;;;;1.47;0.60;;;27.30;62.60;;;;;;5230196;22;20015;-61
2022/02/20 20:23:54;;;;;;;1.02;0.40;;;27.20;62.60;;;;;;5230352;22;20018;-62
2022/02/20 20:26:17;;;;;;;0.30;0.30;;;27.20;62.50;;;;;;5228710;22;20006;-60
2022/02/20 20:28:39;;;;;;;1.23;0.40;;;27.20;62.50;;;;;;5231844;22;20011;-60
2022/02/20 20:31:02;;;;;;;0.50;0.40;;;27.20;62.50;;;;;;5231286;22;20403;-61
2022/02/20 20:33:24;;;;;;;0.77;0.43;;;27.20;62.30;;;;;;5231216;22;20015;-60
2022/02/20 20:35:47;;;;;;;0.95;0.40;;;27.20;62.30;;;;;;5230056;22;20060;-61
2022/02/20 20:38:09;;;;;;;1.38;0.40;;;27.20;62.30;;;;;;5231122;22;20019;-62
2022/02/20 20:40:34;;;;;;;0.85;0.52;;;27.10;62.20;;;;;;5231612;22;20017;-63
2022/02/20 20:42:56;;;;;;;0.32;0.32;;;27.10;62.20;;;;;;5232532;22;21000;-62
2022/02/20 20:45:20;;;;;;;1.00;0.47;;;27.10;62.10;;;;;;5198076;22;20015;-60
2022/02/20 20:47:43;;;;;;;1.70;0.60;;;27.10;62.00;;;;;;5230492;22;20396;-60
2022/02/20 20:50:05;;;;;;;0.40;0.40;;;27.10;62.10;;;;;;5229910;22;20557;-60
2022/02/20 20:52:30;;;;;;;1.52;0.60;;;27.10;62.10;;;;;;5230316;22;20015;-60
2022/02/20 20:54:52;;;;;;;0.60;0.38;;;27.10;62.00;;;;;;5228899;22;20071;-61
2022/02/20 20:57:16;;;;;;;0.85;0.38;;;27.10;62.00;;;;;;5228895;22;20022;-61
2022/02/20 20:59:38;;;;;;;0.57;0.47;;;27.00;62.20;;;;;;5228997;22;20293;-60
2022/02/20 21:02:00;;;;;;;1.13;0.52;;;27.00;61.70;;;;;;5196717;22;20046;-59
2022/02/20 21:04:23;;;;;;;1.85;0.65;;;27.00;61.70;;;;;;5229408;22;20033;-60
2022/02/20 21:06:46;;;;;;;0.95;0.50;;;27.00;61.70;;;;;;5230384;22;20403;-59
2022/02/20 21:09:09;;;;;;;0.40;0.40;;;27.00;61.70;;;;;;5228633;22;20141;-59
2022/02/20 21:11:31;;;;;;;0.73;0.40;;;27.00;61.80;;;;;;5227917;22;20465;-59
2022/02/20 21:13:53;;;;;;;1.77;0.47;;;27.00;61.70;;;;;;5230522;22;20019;-58
2022/02/20 21:16:17;;;;;;;0.40;0.35;;;27.00;61.70;;;;;;5229034;22;20023;-61
2022/02/20 21:18:39;;;;;;;1.05;0.40;;;26.90;61.60;;;;;;5229281;22;20011;-61
2022/02/20 21:21:02;;;;;;;0.30;0.30;;;26.90;61.60;;;;;;5230995;22;20438;-60
2022/02/20 21:23:24;;;;;;;3.08;0.47;;;26.90;61.60;;;;;;5221749;22;20026;-61
2022/02/20 21:25:47;;;;;;;2.58;0.60;;;26.90;61.80;;;;;;5232710;22;20703;-63
2022/02/20 21:28:10;;;;;;;4.43;0.57;;;26.90;61.80;;;;;;5232127;22;20033;-62
2022/02/20 21:30:32;;;;;;;1.52;0.50;;;26.90;61.80;;;;;;5231639;22;20111;-59
2022/02/20 21:32:54;;;;;;;0.63;0.50;;;26.90;61.90;;;;;;5230990;22;20010;-59
2022/02/20 21:35:17;;;;;;;1.33;0.60;;;27.00;61.90;;;;;;5228637;22;20458;-60
2022/02/20 21:37:40;;;;;;;2.30;0.68;;;27.00;61.90;;;;;;5231986;22;20023;-61
2022/02/20 21:40:05;;;;;;;2.47;0.63;;;27.00;61.90;;;;;;5233327;22;20462;-61
2022/02/20 21:42:28;;;;;;;2.70;0.70;;;27.00;61.10;;;;;;5234812;22;20041;-61
2022/02/20 21:44:51;;;;;;;2.50;0.60;;;26.90;60.60;;;;;;5236544;22;20011;-62
2022/02/20 21:47:13;;;;;;;3.43;0.90;;;26.90;60.60;;;;;;5223441;22;20019;-62
2022/02/20 21:49:36;;;;;;;4.20;0.60;;;26.90;61.00;;;;;;5233273;22;20348;-62
2022/02/20 21:51:58;;;;;;;4.20;0.93;;;26.90;61.00;;;;;;5228019;22;20029;-64
2022/02/20 21:54:20;;;;;;;3.95;0.88;;;26.90;61.10;;;;;;5208210;22;20025;-63
2022/02/20 21:56:43;;;;;;;2.85;0.47;;;26.90;60.60;;;;;;5229679;22;20030;-63
2022/02/20 21:59:05;;;;;;;2.03;0.70;;;27.00;60.60;;;;;;5233808;22;20132;-62
2022/02/20 22:01:28;;;;;;;2.50;0.88;;;27.00;60.50;;;;;;5229099;22;20154;-62
2022/02/20 22:03:50;;;;;;;1.38;0.60;;;27.00;60.50;;;;;;5230418;22;20036;-62
2022/02/20 22:06:13;;;;;;;0.80;0.63;;;27.00;60.50;;;;;;5229444;22;20493;-62
2022/02/20 22:08:35;;;;;;;0.80;0.60;;;27.00;60.40;;;;;;5233082;22;20025;-62
2022/02/20 22:10:58;;;;;;;0.93;0.57;;;27.00;60.30;;;;;;5232108;22;20417;-62
2022/02/20 22:13:20;;;;;;;0.65;0.60;;;27.00;60.20;;;;;;5230032;22;20411;-62
2022/02/20 22:15:42;;;;;;;0.77;0.55;;;27.00;60.10;;;;;;5231665;22;20110;-60
2022/02/20 22:18:05;;;;;;;0.47;0.47;;;27.00;60.10;;;;;;5228642;22;20084;-63
2022/02/20 22:20:27;;;;;;;0.50;0.40;;;27.00;60.00;;;;;;5232773;22;20026;-62
2022/02/20 22:22:50;;;;;;;0.50;0.40;;;27.00;59.90;;;;;;5234201;22;20039;-62
2022/02/20 22:25:12;;;;;;;0.38;0.38;;;27.10;59.80;;;;;;5232420;22;20063;-62
2022/02/20 22:27:35;;;;;;;0.47;0.47;;;27.10;59.90;;;;;;5233877;22;20767;-62
2022/02/20 22:29:57;;;;;;;0.40;0.40;;;27.10;59.80;;;;;;5232888;22;20693;-62
2022/02/20 22:32:20;;;;;;;1.10;0.40;;;27.10;59.80;;;;;;5230649;22;20043;-62
2022/02/20 22:34:42;;;;;;;0.43;0.35;;;27.10;59.80;;;;;;5201512;22;20060;-62
2022/02/20 22:37:06;;;;;;;0.43;0.40;;;27.10;59.80;;;;;;5183786;22;20023;-63
2022/02/20 22:39:29;;;;;;;1.80;0.50;;;27.10;60.00;;;;;;5191773;22;20022;-66
2022/02/20 22:41:54;;;;;;;0.73;0.57;;;27.20;60.00;;;;;;5154003;22;20026;-65
2022/02/20 22:44:17;;;;;;;0.63;0.52;;;27.20;60.00;;;;;;5161852;22;20041;-65
2022/02/20 22:46:40;;;;;;;0.68;0.40;;;27.30;60.80;;;;;;5193308;22;20022;-62
2022/02/20 22:49:03;;;;;;;2.67;0.50;;;27.30;60.10;;;;;;5204781;22;20057;-62
2022/02/20 22:51:25;;;;;;;0.60;0.40;;;27.30;60.20;;;;;;5206163;22;20014;-61
2022/02/20 22:53:48;;;;;;;1.58;0.60;;;27.30;60.10;;;;;;5205366;22;20040;-61
2022/02/20 22:56:11;;;;;;;2.50;1.08;;;27.30;60.00;;;;;;5205016;22;20014;-60
2022/02/20 22:58:33;;;;;;;1.02;0.30;;;27.40;60.00;;;;;;5211720;22;20387;-62
2022/02/20 23:00:56;;;;;;;0.93;0.40;;;27.40;59.90;;;;;;5208810;22;20049;-60
2022/02/20 23:03:24;;;;;;;2.47;0.50;;;27.40;59.90;;;;;;5203146;22;20343;-61
2022/02/20 23:05:47;;;;;;;4.93;0.50;;;27.40;59.90;;;;;;5202227;22;20247;-62
2022/02/20 23:08:11;;;;;;;0.70;0.40;;;27.40;59.90;;;;;;5206128;22;20721;-60
2022/02/20 23:10:34;;;;;;;0.93;0.57;;;27.50;60.00;;;;;;5208783;22;20872;-61
2022/02/20 23:12:56;;;;;;;3.22;0.65;;;27.50;60.00;;;;;;5209177;22;20083;-64
2022/02/20 23:15:19;;;;;;;3.15;0.45;;;27.50;60.00;;;;;;5208097;22;20015;-61
2022/02/20 23:17:41;;;;;;;1.17;0.43;;;27.60;60.00;;;;;;5215459;22;20130;-63
2022/02/20 23:20:04;;;;;;;1.27;0.50;;;27.60;60.00;;;;;;5208906;22;20019;-64
2022/02/20 23:22:27;;;;;;;2.20;0.57;;;27.70;60.00;;;;;;5176557;22;20011;-61
2022/02/20 23:24:49;;;;;;;1.25;0.50;;;27.70;60.00;;;;;;5217828;22;20094;-65
2022/02/20 23:27:11;;;;;;;0.98;0.65;;;27.80;60.70;;;;;;5209105;22;20042;-62
2022/02/20 23:29:34;;;;;;;0.52;0.40;;;27.80;60.30;;;;;;5213676;22;20018;-64
2022/02/20 23:31:56;;;;;;;0.88;0.60;;;27.80;60.50;;;;;;5228830;22;20010;-62
2022/02/20 23:34:19;;;;;;;1.70;0.45;;;27.80;60.50;;;;;;5223794;22;20068;-62
2022/02/20 23:36:42;;;;;;;0.43;0.30;;;27.90;60.50;;;;;;5224796;22;20678;-64
2022/02/20 23:39:05;;;;;;;2.80;0.40;;;27.90;60.50;;;;;;5217684;22;20018;-64
2022/02/20 23:41:27;;;;;;;0.60;0.60;;;28.00;60.50;;;;;;5206549;22;20018;-64
2022/02/20 23:43:50;;;;;;;1.25;0.40;;;28.00;60.40;;;;;;5177307;22;20011;-64
2022/02/20 23:46:21;;;;;;;0.70;0.40;;;28.00;60.20;;;;;;5211197;22;20492;-60
2022/02/20 23:48:43;;;;;;;0.32;0.32;;;28.10;60.20;;;;;;5206734;22;20014;-61
2022/02/20 23:51:07;;;;;;;0.80;0.55;;;28.10;60.20;;;;;;5202399;22;20007;-61
2022/02/20 23:53:30;;;;;;;1.20;0.80;;;28.10;60.00;;;;;;5200711;22;20019;-63
2022/02/20 23:55:53;;;;;;;0.75;0.60;;;28.10;58.60;;;;;;5196416;22;20014;-62
2022/02/20 23:58:15;;;;;;;1.02;0.80;;;28.00;55.90;;;;;;5202169;22;20030;-61
